createdAt,value
2023-05-06T00:01:37.944Z,13.32
2023-05-06T00:04:05.427Z,11.50
2023-05-06T00:06:33.483Z,13.60
2023-05-06T00:09:00.706Z,17.05
2023-05-06T00:11:29.302Z,11.50
2023-05-06T00:13:56.258Z,12.15
2023-05-06T00:16:23.303Z,18.30
2023-05-06T00:18:50.765Z,13.70
2023-05-06T00:21:17.757Z,13.23
2023-05-06T00:23:44.810Z,13.68
2023-05-06T00:26:11.840Z,14.15
2023-05-06T00:28:40.172Z,11.18
2023-05-06T00:31:07.223Z,16.70
2023-05-06T00:33:34.151Z,12.57
2023-05-06T00:36:01.188Z,12.98
2023-05-06T00:38:28.112Z,13.30
2023-05-06T00:40:55.319Z,11.65
2023-05-06T00:43:22.285Z,12.25
2023-05-06T00:45:51.644Z,11.85
2023-05-06T00:48:18.876Z,12.75
2023-05-06T00:50:46.063Z,17.83
2023-05-06T00:53:13.115Z,15.43
2023-05-06T00:55:40.397Z,14.57
2023-05-06T00:58:08.465Z,14.27
2023-05-06T01:00:35.689Z,11.93
2023-05-06T01:03:04.254Z,15.32
2023-05-06T01:05:40.097Z,12.18
2023-05-06T01:08:14.855Z,15.60
2023-05-06T01:10:47.460Z,13.13
2023-05-06T01:13:21.489Z,16.83
2023-05-06T01:15:53.301Z,10.05
2023-05-06T01:18:23.084Z,13.90
2023-05-06T01:20:53.482Z,18.55
2023-05-06T01:23:21.839Z,17.67
2023-05-06T01:25:48.859Z,13.88
2023-05-06T01:28:17.107Z,15.05
2023-05-06T01:30:53.086Z,15.45
2023-05-06T01:33:28.110Z,12.57
2023-05-06T01:36:02.520Z,14.20
2023-05-06T01:38:37.968Z,14.05
2023-05-06T01:41:05.485Z,14.50
2023-05-06T01:43:38.775Z,17.73
2023-05-06T01:46:09.456Z,12.35
2023-05-06T01:48:37.640Z,14.00
2023-05-06T01:51:04.849Z,12.65
2023-05-06T01:53:36.247Z,11.07
2023-05-06T01:56:03.287Z,13.60
2023-05-06T01:58:30.326Z,15.63
2023-05-06T02:00:57.266Z,11.93
2023-05-06T02:03:24.321Z,14.73
2023-05-06T02:05:51.765Z,17.83
2023-05-06T02:08:20.335Z,12.57
2023-05-06T02:10:48.732Z,18.73
2023-05-06T02:13:18.616Z,12.18
2023-05-06T02:15:46.503Z,16.88
2023-05-06T02:18:17.354Z,12.60
2023-05-06T02:20:44.245Z,11.00
2023-05-06T02:23:16.280Z,12.90
2023-05-06T02:25:43.558Z,15.57
2023-05-06T02:28:11.901Z,13.60
2023-05-06T02:30:39.062Z,12.73
2023-05-06T02:33:06.236Z,11.80
2023-05-06T02:35:33.225Z,17.38
2023-05-06T02:38:01.633Z,17.45
2023-05-06T02:40:28.591Z,14.50
2023-05-06T02:42:55.626Z,11.02
2023-05-06T02:45:24.050Z,12.90
2023-05-06T02:47:51.177Z,15.02
2023-05-06T02:50:18.385Z,18.25
2023-05-06T02:52:45.304Z,17.77
2023-05-06T02:55:12.322Z,12.52
2023-05-06T02:57:39.264Z,18.38
2023-05-06T03:00:07.653Z,13.63
2023-05-06T03:02:36.110Z,12.80
2023-05-06T03:05:04.553Z,14.23
2023-05-06T03:07:32.428Z,16.10
2023-05-06T03:09:59.893Z,17.95
2023-05-06T03:12:26.900Z,13.95
2023-05-06T03:14:53.809Z,14.23
2023-05-06T03:17:21.700Z,13.48
2023-05-06T03:19:51.042Z,15.70
2023-05-06T03:22:18.866Z,12.68
2023-05-06T03:24:46.396Z,15.95
2023-05-06T03:27:13.361Z,17.20
2023-05-06T03:29:41.716Z,19.58
2023-05-06T03:32:10.758Z,13.75
2023-05-06T03:34:42.147Z,12.32
2023-05-06T03:37:13.884Z,12.52
2023-05-06T03:39:48.221Z,14.55
2023-05-06T03:42:16.244Z,16.30
2023-05-06T03:44:44.629Z,17.55
2023-05-06T03:47:11.692Z,17.25
2023-05-06T03:49:38.678Z,17.13
2023-05-06T03:52:06.162Z,16.88
2023-05-06T03:54:34.665Z,16.20
2023-05-06T03:57:02.608Z,15.88
2023-05-06T03:59:30.855Z,17.35
2023-05-06T04:01:58.329Z,16.00
2023-05-06T04:04:27.357Z,19.08
2023-05-06T04:06:54.463Z,20.02
2023-05-06T04:09:21.540Z,15.27
2023-05-06T04:11:51.380Z,15.48
2023-05-06T04:14:18.999Z,17.67
2023-05-06T04:16:46.444Z,16.77
2023-05-06T04:19:14.084Z,15.75
2023-05-06T04:21:40.989Z,19.58
2023-05-06T04:24:11.631Z,20.75
2023-05-06T04:26:39.886Z,20.92
2023-05-06T04:29:09.069Z,17.88
2023-05-06T04:31:43.136Z,18.45
2023-05-06T04:34:12.410Z,21.38
2023-05-06T04:36:40.683Z,19.38
2023-05-06T04:39:32.971Z,18.33
2023-05-06T04:41:59.993Z,21.35
2023-05-06T04:44:36.566Z,18.95
2023-05-06T04:47:08.342Z,14.30
2023-05-06T04:49:35.779Z,19.23
2023-05-06T04:52:04.633Z,17.83
2023-05-06T04:54:32.443Z,19.83
2023-05-06T04:56:59.394Z,14.85
2023-05-06T04:59:27.172Z,15.68
2023-05-06T05:01:55.629Z,16.88
2023-05-06T05:04:22.644Z,17.60
2023-05-06T05:06:49.628Z,17.67
2023-05-06T05:09:17.030Z,19.40
2023-05-06T05:11:46.286Z,13.40
2023-05-06T05:14:13.902Z,16.70
2023-05-06T05:16:40.980Z,19.55
2023-05-06T05:19:09.723Z,15.05
2023-05-06T05:21:37.075Z,14.60
2023-05-06T05:24:06.437Z,16.30
2023-05-06T05:26:36.771Z,18.02
2023-05-06T05:29:03.866Z,16.48
2023-05-06T05:31:32.284Z,15.93
2023-05-06T05:34:00.293Z,14.35
2023-05-06T05:36:29.342Z,16.50
2023-05-06T05:38:58.727Z,14.48
2023-05-06T05:41:27.713Z,18.33
2023-05-06T05:43:58.461Z,14.23
2023-05-06T05:46:27.266Z,15.35
2023-05-06T05:48:56.056Z,16.65
2023-05-06T05:51:23.984Z,13.80
2023-05-06T05:53:53.371Z,13.90
2023-05-06T05:56:22.982Z,16.80
2023-05-06T05:58:49.894Z,19.27
2023-05-06T06:01:17.567Z,19.90
2023-05-06T06:03:44.909Z,16.10
2023-05-06T06:06:12.079Z,10.70
2023-05-06T06:08:39.658Z,15.93
2023-05-06T06:11:08.598Z,13.20
2023-05-06T06:13:40.023Z,14.25
2023-05-06T06:16:08.292Z,12.27
2023-05-06T06:18:35.637Z,16.50
2023-05-06T06:21:03.235Z,12.60
2023-05-06T06:23:30.441Z,11.30
2023-05-06T06:26:01.833Z,14.40
2023-05-06T06:28:30.189Z,13.05
2023-05-06T06:30:57.235Z,11.95
2023-05-06T06:33:24.127Z,13.77
2023-05-06T06:35:51.282Z,15.50
2023-05-06T06:38:18.454Z,10.70
2023-05-06T06:40:45.875Z,11.63
2023-05-06T06:43:12.796Z,11.68
2023-05-06T06:46:00.857Z,10.20
2023-05-06T06:48:27.868Z,12.73
2023-05-06T06:50:54.764Z,10.77
2023-05-06T06:53:22.041Z,12.38
2023-05-06T06:55:48.978Z,9.35
2023-05-06T06:58:16.312Z,8.95
2023-05-06T07:00:43.892Z,12.88
2023-05-06T07:03:15.544Z,11.95
2023-05-06T07:05:42.766Z,15.88
2023-05-06T07:08:09.730Z,12.63
2023-05-06T07:10:36.916Z,7.57
2023-05-06T07:13:04.059Z,8.70
2023-05-06T07:15:31.026Z,7.68
2023-05-06T07:17:58.017Z,10.75
2023-05-06T07:20:26.440Z,10.70
2023-05-06T07:22:53.353Z,7.25
2023-05-06T07:25:20.358Z,8.55
2023-05-06T07:27:49.266Z,8.40
2023-05-06T07:30:16.421Z,12.88
2023-05-06T07:32:43.630Z,11.35
2023-05-06T07:35:10.860Z,8.85
2023-05-06T07:37:39.980Z,4.80
2023-05-06T07:40:08.527Z,7.22
2023-05-06T07:42:35.496Z,7.85
2023-05-06T07:45:02.572Z,7.93
2023-05-06T07:47:31.674Z,8.38
2023-05-06T07:49:59.906Z,6.75
2023-05-06T07:52:27.710Z,4.63
2023-05-06T07:54:56.080Z,5.68
2023-05-06T07:57:23.061Z,3.67
2023-05-06T07:59:51.235Z,8.05
2023-05-06T08:02:18.768Z,5.45
2023-05-06T08:04:46.529Z,6.45
2023-05-06T08:07:14.882Z,7.25
2023-05-06T08:09:41.822Z,5.53
2023-05-06T08:12:10.258Z,9.77
2023-05-06T08:14:37.288Z,5.72
2023-05-06T08:17:04.408Z,6.20
2023-05-06T08:19:31.392Z,8.70
2023-05-06T08:21:58.374Z,5.10
2023-05-06T08:24:25.705Z,8.50
2023-05-06T08:26:53.143Z,5.70
2023-05-06T08:29:21.662Z,14.35
2023-05-06T08:31:48.776Z,9.32
2023-05-06T08:34:18.556Z,11.82
2023-05-06T08:36:45.667Z,8.18
2023-05-06T08:39:14.562Z,5.88
2023-05-06T08:41:44.838Z,5.75
2023-05-06T08:44:16.085Z,5.00
2023-05-06T08:46:44.476Z,3.95
2023-05-06T08:49:11.474Z,6.72
2023-05-06T08:51:38.539Z,7.13
2023-05-06T08:54:06.438Z,8.20
2023-05-06T08:56:34.037Z,9.82
2023-05-06T08:59:01.470Z,9.23
2023-05-06T09:01:28.901Z,8.80
2023-05-06T09:03:59.308Z,7.18
2023-05-06T09:06:27.173Z,4.70
2023-05-06T09:08:54.525Z,9.93
2023-05-06T09:11:23.156Z,4.57
2023-05-06T09:13:51.164Z,8.02
2023-05-06T09:16:36.214Z,8.43
2023-05-06T09:19:04.897Z,8.05
2023-05-06T09:21:35.265Z,7.60
2023-05-06T09:24:03.087Z,7.82
2023-05-06T09:26:30.585Z,6.00
2023-05-06T09:28:58.458Z,3.78
2023-05-06T09:31:26.008Z,5.30
2023-05-06T09:33:53.628Z,4.88
2023-05-06T09:36:22.475Z,6.82
2023-05-06T09:38:49.723Z,8.68
2023-05-06T09:41:21.061Z,7.53
2023-05-06T09:43:49.324Z,4.45
2023-05-06T09:46:17.231Z,3.40
2023-05-06T09:48:45.379Z,5.15
2023-05-06T09:51:12.943Z,10.23
2023-05-06T09:53:42.791Z,7.50
2023-05-06T09:56:10.002Z,6.10
2023-05-06T09:58:37.323Z,6.88
2023-05-06T10:01:09.405Z,6.45
2023-05-06T10:03:36.808Z,11.80
2023-05-06T10:06:06.251Z,3.45
2023-05-06T10:08:35.041Z,6.35
2023-05-06T10:11:05.405Z,8.13
2023-05-06T10:13:32.890Z,7.10
2023-05-06T10:16:02.799Z,19.98
2023-05-06T10:18:30.840Z,6.03
2023-05-06T10:21:00.171Z,8.90
2023-05-06T10:23:36.022Z,5.70
2023-05-06T10:26:08.096Z,7.53
2023-05-06T10:28:39.320Z,11.45
2023-05-06T10:31:10.964Z,6.93
2023-05-06T10:33:38.627Z,3.97
2023-05-06T10:36:20.549Z,7.20
2023-05-06T10:38:54.724Z,6.93
2023-05-06T10:41:26.082Z,2.95
2023-05-06T10:43:57.081Z,6.47
2023-05-06T10:46:26.233Z,5.03
2023-05-06T10:49:18.401Z,4.70
2023-05-06T10:52:11.609Z,9.60
2023-05-06T10:54:49.353Z,7.68
2023-05-06T10:57:18.025Z,6.60
2023-05-06T10:59:46.666Z,3.75
2023-05-06T11:02:14.714Z,6.07
2023-05-06T11:04:41.996Z,6.70
2023-05-06T11:07:11.249Z,4.78
2023-05-06T11:09:55.388Z,10.80
2023-05-06T11:12:45.037Z,4.50
2023-05-06T11:15:25.270Z,10.05
2023-05-06T11:17:53.893Z,5.65
2023-05-06T11:20:22.290Z,10.73
2023-05-06T11:22:49.571Z,7.95
2023-05-06T11:25:41.215Z,6.80
2023-05-06T11:28:11.094Z,7.25
2023-05-06T11:30:41.670Z,6.70
2023-05-06T11:33:13.772Z,4.40
2023-05-06T11:35:41.278Z,9.13
2023-05-06T11:38:08.259Z,6.45
2023-05-06T11:40:35.466Z,11.85
2023-05-06T11:43:14.261Z,6.70
2023-05-06T11:45:43.824Z,5.78
2023-05-06T11:48:14.139Z,8.00
2023-05-06T11:50:45.514Z,7.10
2023-05-06T11:53:13.019Z,3.35
2023-05-06T11:55:40.177Z,3.80
2023-05-06T11:58:12.172Z,7.30
2023-05-06T12:00:49.699Z,6.05
2023-05-06T12:03:18.352Z,10.35
2023-05-06T12:05:47.985Z,4.82
2023-05-06T12:08:26.535Z,7.28
2023-05-06T12:10:56.449Z,3.90
2023-05-06T12:13:23.643Z,4.97
2023-05-06T12:15:54.605Z,6.55
2023-05-06T12:18:22.295Z,5.20
2023-05-06T12:20:49.310Z,5.07
2023-05-06T12:23:17.076Z,6.90
2023-05-06T12:25:49.270Z,5.45
2023-05-06T12:28:17.596Z,8.38
2023-05-06T12:30:45.110Z,6.55
2023-05-06T12:33:13.603Z,10.20
2023-05-06T12:35:41.470Z,6.95
2023-05-06T12:38:09.562Z,7.80
2023-05-06T12:40:36.832Z,5.07
2023-05-06T12:43:03.896Z,11.35
2023-05-06T12:45:31.221Z,12.50
2023-05-06T12:47:59.253Z,12.88
2023-05-06T12:50:36.417Z,7.05
2023-05-06T12:53:03.947Z,7.43
2023-05-06T12:55:31.503Z,6.18
2023-05-06T12:57:58.528Z,4.55
2023-05-06T13:00:25.657Z,4.22
2023-05-06T13:02:55.060Z,9.15
2023-05-06T13:05:22.322Z,6.32
2023-05-06T13:07:51.293Z,6.05
2023-05-06T13:10:18.244Z,6.28
2023-05-06T13:12:45.489Z,6.00
2023-05-06T13:15:12.482Z,3.45
2023-05-06T13:17:39.514Z,8.05
2023-05-06T13:20:07.830Z,5.20
2023-05-06T13:22:47.025Z,6.18
2023-05-06T13:25:22.298Z,5.43
2023-05-06T13:27:49.282Z,12.68
2023-05-06T13:30:17.206Z,8.18
2023-05-06T13:32:46.868Z,8.68
2023-05-06T13:35:13.886Z,17.38
2023-05-06T13:37:40.990Z,7.85
2023-05-06T13:40:09.723Z,9.18
2023-05-06T13:42:38.840Z,29.88
2023-05-06T13:45:07.363Z,14.93
2023-05-06T13:47:34.295Z,16.17
2023-05-06T13:50:03.725Z,19.02
2023-05-06T13:52:30.708Z,12.43
2023-05-06T13:54:58.382Z,6.32
2023-05-06T13:57:26.023Z,11.40
2023-05-06T13:59:54.353Z,12.70
2023-05-06T14:02:21.406Z,12.93
2023-05-06T14:04:48.459Z,11.48
2023-05-06T14:07:15.747Z,15.07
2023-05-06T14:09:42.656Z,15.10
2023-05-06T14:12:09.622Z,16.73
2023-05-06T14:14:36.538Z,19.35
2023-05-06T14:17:04.830Z,20.02
2023-05-06T14:19:31.806Z,18.92
2023-05-06T14:21:58.764Z,13.30
2023-05-06T14:24:25.691Z,12.98
2023-05-06T14:26:53.812Z,16.17
2023-05-06T14:29:20.904Z,10.02
2023-05-06T14:31:48.044Z,11.57
2023-05-06T14:34:16.399Z,5.00
2023-05-06T14:36:43.797Z,4.57
2023-05-06T14:39:10.816Z,5.78
2023-05-06T14:41:37.711Z,9.30
2023-05-06T14:44:05.162Z,4.90
2023-05-06T14:46:32.169Z,18.13
2023-05-06T14:48:59.204Z,10.65
2023-05-06T14:51:28.543Z,10.73
2023-05-06T14:53:56.302Z,10.23
2023-05-06T14:56:23.229Z,11.15
2023-05-06T14:58:50.389Z,3.97
2023-05-06T15:01:20.845Z,6.63
2023-05-06T15:03:47.868Z,7.22
2023-05-06T15:06:14.856Z,6.72
2023-05-06T15:08:43.246Z,9.93
2023-05-06T15:11:10.172Z,6.18
2023-05-06T15:13:37.087Z,5.47
2023-05-06T15:16:04.798Z,7.60
2023-05-06T15:18:31.802Z,6.13
2023-05-06T15:21:01.418Z,4.55
2023-05-06T15:23:28.509Z,7.25
2023-05-06T15:25:58.229Z,13.30
2023-05-06T15:28:25.386Z,6.60
2023-05-06T15:30:52.338Z,5.22
2023-05-06T15:33:19.338Z,21.70
2023-05-06T15:35:46.324Z,13.13
2023-05-06T15:38:13.253Z,9.15
2023-05-06T15:40:40.742Z,12.27
2023-05-06T15:43:09.074Z,9.45
2023-05-06T15:45:36.217Z,14.50
2023-05-06T15:48:03.357Z,7.05
2023-05-06T15:50:33.937Z,9.52
2023-05-06T15:53:02.273Z,7.90
2023-05-06T15:55:29.949Z,4.95
2023-05-06T15:57:58.480Z,10.25
2023-05-06T16:00:28.279Z,10.77
2023-05-06T16:02:55.530Z,8.90
2023-05-06T16:05:22.594Z,3.00
2023-05-06T16:07:50.004Z,5.70
2023-05-06T16:10:16.929Z,8.00
2023-05-06T16:12:43.977Z,9.05
2023-05-06T16:15:11.443Z,6.90
2023-05-06T16:17:40.578Z,7.97
2023-05-06T16:20:10.563Z,8.48
2023-05-06T16:22:39.841Z,11.43
2023-05-06T16:25:07.760Z,10.90
2023-05-06T16:27:35.483Z,12.27
2023-05-06T16:30:02.408Z,12.45
2023-05-06T16:32:29.400Z,8.60
2023-05-06T16:34:59.394Z,4.43
2023-05-06T16:37:26.632Z,11.15
2023-05-06T16:39:53.549Z,8.50
2023-05-06T16:42:20.571Z,9.20
2023-05-06T16:44:48.059Z,9.18
2023-05-06T16:47:15.469Z,6.05
2023-05-06T16:49:42.737Z,31.08
2023-05-06T16:52:11.266Z,14.15
2023-05-06T16:54:38.312Z,5.55
2023-05-06T16:57:05.226Z,12.63
2023-05-06T16:59:32.262Z,8.55
2023-05-06T17:01:59.263Z,10.20
2023-05-06T17:04:26.645Z,3.42
2023-05-06T17:06:55.141Z,5.05
2023-05-06T17:09:23.501Z,5.82
2023-05-06T17:11:50.615Z,7.32
2023-05-06T17:14:17.628Z,5.20
2023-05-06T17:16:45.392Z,8.18
2023-05-06T17:19:12.475Z,4.38
2023-05-06T17:21:39.752Z,6.78
2023-05-06T17:24:07.230Z,8.90
2023-05-06T17:26:38.689Z,10.40
2023-05-06T17:29:06.171Z,5.35
2023-05-06T17:31:33.130Z,6.90
2023-05-06T17:34:00.721Z,8.55
2023-05-06T17:36:27.949Z,11.10
2023-05-06T17:39:02.310Z,8.60
2023-05-06T17:41:29.272Z,4.78
2023-05-06T17:43:58.126Z,5.65
2023-05-06T17:46:25.303Z,7.22
2023-05-06T17:48:52.528Z,6.20
2023-05-06T17:51:19.569Z,6.22
2023-05-06T17:53:46.525Z,5.28
2023-05-06T17:56:13.535Z,13.73
2023-05-06T17:58:40.482Z,7.60
2023-05-06T18:01:09.155Z,9.45
2023-05-06T18:03:36.334Z,6.97
2023-05-06T18:06:04.206Z,7.25
2023-05-06T18:08:31.161Z,6.20
2023-05-06T18:10:58.132Z,6.18
2023-05-06T18:13:25.610Z,6.13
2023-05-06T18:15:52.588Z,13.60
2023-05-06T18:18:24.015Z,5.85
2023-05-06T18:20:51.087Z,11.15
2023-05-06T18:23:18.068Z,3.53
2023-05-06T18:25:45.442Z,7.32
2023-05-06T18:28:12.754Z,6.10
2023-05-06T18:30:39.768Z,7.00
2023-05-06T18:33:06.729Z,4.88
2023-05-06T18:35:36.598Z,7.75
2023-05-06T18:38:03.668Z,9.45
2023-05-06T18:40:31.121Z,9.13
2023-05-06T18:42:58.243Z,11.52
2023-05-06T18:45:25.350Z,7.93
2023-05-06T18:47:52.395Z,4.30
2023-05-06T18:50:19.557Z,9.50
2023-05-06T18:52:48.105Z,7.15
2023-05-06T18:55:15.011Z,9.02
2023-05-06T18:57:42.012Z,4.63
2023-05-06T19:00:09.660Z,6.85
2023-05-06T19:02:37.895Z,7.57
2023-05-06T19:05:06.320Z,7.35
2023-05-06T19:07:33.300Z,4.03
2023-05-06T19:10:01.641Z,5.47
2023-05-06T19:12:30.164Z,5.45
2023-05-06T19:14:57.106Z,3.72
2023-05-06T19:17:24.128Z,10.70
2023-05-06T19:19:51.250Z,12.43
2023-05-06T19:22:18.294Z,5.60
2023-05-06T19:24:45.340Z,4.40
2023-05-06T19:27:13.659Z,5.85
2023-05-06T19:29:40.688Z,7.07
2023-05-06T19:32:07.630Z,4.78
2023-05-06T19:34:34.609Z,6.65
2023-05-06T19:37:01.521Z,9.65
2023-05-06T19:39:28.597Z,5.47
2023-05-06T19:41:55.751Z,6.25
2023-05-06T19:44:24.203Z,6.65
2023-05-06T19:46:54.306Z,8.73
2023-05-06T19:49:21.438Z,10.30
2023-05-06T19:51:48.380Z,8.48
2023-05-06T19:54:15.385Z,5.63
2023-05-06T19:56:43.553Z,5.93
2023-05-06T19:59:10.489Z,8.35
2023-05-06T20:01:38.835Z,6.47
2023-05-06T20:04:06.327Z,6.15
2023-05-06T20:06:33.396Z,5.35
2023-05-06T20:09:00.322Z,5.05
2023-05-06T20:11:27.227Z,5.85
2023-05-06T20:13:54.278Z,6.85
2023-05-06T20:16:21.287Z,5.10
2023-05-06T20:18:51.544Z,7.53
2023-05-06T20:21:18.473Z,6.57
2023-05-06T20:23:45.618Z,5.32
2023-05-06T20:26:12.535Z,6.88
2023-05-06T20:28:39.540Z,5.72
2023-05-06T20:31:06.940Z,8.38
2023-05-06T20:33:34.188Z,9.07
2023-05-06T20:36:02.509Z,6.50
2023-05-06T20:38:30.940Z,4.35
2023-05-06T20:40:58.784Z,9.32
2023-05-06T20:43:25.890Z,10.77
2023-05-06T20:45:52.956Z,11.18
2023-05-06T20:48:19.948Z,7.43
2023-05-06T20:50:47.111Z,11.13
2023-05-06T20:53:15.609Z,9.70
2023-05-06T20:55:42.588Z,6.90
2023-05-06T20:58:09.513Z,10.60
2023-05-06T21:00:36.416Z,7.30
2023-05-06T21:03:04.801Z,6.15
2023-05-06T21:05:32.451Z,6.72
2023-05-06T21:07:59.363Z,7.88
2023-05-06T21:10:27.688Z,8.18
2023-05-06T21:12:54.707Z,13.48
2023-05-06T21:15:22.014Z,7.32
2023-05-06T21:17:49.223Z,6.35
2023-05-06T21:20:16.606Z,9.43
2023-05-06T21:22:43.597Z,7.10
2023-05-06T21:25:13.091Z,9.80
2023-05-06T21:27:41.687Z,5.97
2023-05-06T21:30:09.679Z,8.13
2023-05-06T21:32:36.633Z,8.70
2023-05-06T21:35:03.924Z,7.05
2023-05-06T21:37:35.704Z,5.40
2023-05-06T21:40:04.461Z,7.45
2023-05-06T21:42:31.517Z,6.35
2023-05-06T21:44:59.774Z,10.38
2023-05-06T21:47:26.968Z,5.50
2023-05-06T21:49:53.983Z,10.50
2023-05-06T21:52:21.030Z,13.98
2023-05-06T21:54:48.291Z,6.60
2023-05-06T21:57:15.436Z,6.15
2023-05-06T21:59:42.586Z,4.85
2023-05-06T22:02:11.017Z,6.82
2023-05-06T22:04:38.088Z,11.68
2023-05-06T22:07:05.241Z,9.88
2023-05-06T22:09:32.139Z,5.70
2023-05-06T22:11:59.071Z,7.88
2023-05-06T22:14:30.208Z,14.23
2023-05-06T22:17:08.030Z,5.20
2023-05-06T22:19:36.435Z,13.80
2023-05-06T22:22:04.246Z,8.05
2023-05-06T22:24:31.397Z,19.83
2023-05-06T22:26:58.411Z,12.70
2023-05-06T22:29:25.716Z,5.55
2023-05-06T22:31:52.760Z,12.00
2023-05-06T22:34:19.802Z,7.25
2023-05-06T22:36:48.090Z,4.15
2023-05-06T22:39:15.102Z,10.75
2023-05-06T22:41:42.073Z,6.95
2023-05-06T22:44:09.037Z,6.57
2023-05-06T22:46:36.182Z,10.45
2023-05-06T22:49:03.506Z,7.65
2023-05-06T22:51:32.164Z,5.93
2023-05-06T22:54:00.906Z,6.15
2023-05-06T22:56:27.867Z,8.20
2023-05-06T22:58:54.891Z,5.47
2023-05-06T23:01:22.845Z,5.78
2023-05-06T23:03:49.942Z,6.95
2023-05-06T23:06:18.101Z,9.95
2023-05-06T23:08:44.991Z,10.85
2023-05-06T23:11:13.305Z,9.43
2023-05-06T23:13:40.535Z,11.32
2023-05-06T23:16:10.160Z,7.13
2023-05-06T23:18:37.340Z,5.93
2023-05-06T23:21:04.530Z,6.13
2023-05-06T23:23:31.922Z,9.27
2023-05-06T23:25:58.974Z,4.38
2023-05-06T23:28:28.031Z,7.05
2023-05-06T23:30:55.046Z,7.78
2023-05-06T23:33:22.326Z,6.07
2023-05-06T23:35:49.326Z,7.28
2023-05-06T23:38:16.313Z,5.35
2023-05-06T23:40:43.271Z,9.45
2023-05-06T23:43:11.359Z,7.93
2023-05-06T23:45:39.808Z,7.80
2023-05-06T23:48:07.328Z,12.70
2023-05-06T23:50:34.497Z,8.60
2023-05-06T23:53:01.459Z,5.78
2023-05-06T23:55:28.849Z,10.82
2023-05-06T23:57:55.962Z,7.65
